Time,TemperatureF,DewpointF,PressureIn,WindDirection,WindDirectionDegrees,WindSpeedMPH,WindSpeedGustMPH,Humidity,HourlyPrecipIn,Conditions,Clouds,dailyrainin,SoftwareType,DateUTC
2013-11-16 00:01:00,18.9,16.7,30.17,NE,45,0.0,0.0,91,0.00,,,0.00,Weather View 32 v70,2013-11-16 09:01:00,
2013-11-16 00:06:00,18.9,16.7,30.18,NE,45,0.0,0.0,91,0.00,,,0.00,Weather View 32 v70,2013-11-16 09:06:00,
2013-11-16 00:11:00,18.9,16.7,30.18,NE,45,0.0,0.0,91,0.00,,,0.00,Weather View 32 v70,2013-11-16 09:11:00,
2013-11-16 00:17:00,18.3,16.1,30.18,NE,45,0.0,0.0,91,0.00,,,0.00,Weather View 32 v70,2013-11-16 09:17:00,
2013-11-16 00:22:00,18.1,16.0,30.18,NE,45,0.0,0.0,91,0.00,,,0.00,Weather View 32 v70,2013-11-16 09:22:00,
2013-11-16 00:27:00,18.1,16.0,30.18,NE,45,0.0,0.0,91,0.00,,,0.00,Weather View 32 v70,2013-11-16 09:27:00,
2013-11-16 00:32:00,18.1,16.0,30.18,NE,45,0.0,0.0,91,0.00,,,0.00,Weather View 32 v70,2013-11-16 09:32:00,
2013-11-16 00:37:00,18.5,16.3,30.18,NE,45,0.0,0.0,91,0.00,,,0.00,Weather View 32 v70,2013-11-16 09:37:00,
2013-11-16 00:42:00,18.5,16.3,30.18,NE,45,0.0,0.0,91,0.00,,,0.00,Weather View 32 v70,2013-11-16 09:42:00,
2013-11-16 00:47:00,18.5,16.3,30.18,NE,45,0.0,0.0,91,0.00,,,0.00,Weather View 32 v70,2013-11-16 09:47:00,
2013-11-16 00:52:00,18.5,16.3,30.18,NE,45,0.0,0.0,91,0.00,,,0.00,Weather View 32 v70,2013-11-16 09:52:00,
2013-11-16 00:57:00,18.5,16.3,30.18,NE,45,0.0,0.0,91,0.00,,,0.00,Weather View 32 v70,2013-11-16 09:57:00,
2013-11-16 01:02:00,18.9,16.7,30.18,NE,45,0.0,0.0,91,0.00,,,0.00,Weather View 32 v70,2013-11-16 10:02:00,
2013-11-16 01:07:00,18.5,16.3,30.18,NE,45,0.0,0.0,91,0.00,,,0.00,Weather View 32 v70,2013-11-16 10:07:00,
2013-11-16 01:12:00,18.5,16.3,30.18,NE,45,0.0,0.0,91,0.00,,,0.00,Weather View 32 v70,2013-11-16 10:12:00,
2013-11-16 01:17:00,18.5,16.3,30.18,NE,45,0.0,0.0,91,0.00,,,0.00,Weather View 32 v70,2013-11-16 10:17:00,
2013-11-16 01:22:00,18.5,16.3,30.18,NE,45,0.0,0.0,91,0.00,,,0.00,Weather View 32 v70,2013-11-16 10:22:00,
2013-11-16 01:27:00,18.5,16.3,30.19,NE,45,0.0,0.0,91,0.00,,,0.00,Weather View 32 v70,2013-11-16 10:27:00,
2013-11-16 01:32:00,18.3,16.1,30.19,NE,45,0.0,0.0,91,0.00,,,0.00,Weather View 32 v70,2013-11-16 10:32:00,
2013-11-16 01:37:00,18.1,16.0,30.19,NE,45,0.0,0.0,91,0.00,,,0.00,Weather View 32 v70,2013-11-16 10:37:00,
2013-11-16 01:42:00,17.8,15.6,30.19,NE,45,0.0,0.0,91,0.00,,,0.00,Weather View 32 v70,2013-11-16 10:42:00,
2013-11-16 01:47:00,17.4,15.0,30.19,NE,45,0.0,0.0,90,0.00,,,0.00,Weather View 32 v70,2013-11-16 10:47:00,
2013-11-16 01:52:00,17.1,14.6,30.19,NE,45,0.0,0.0,90,0.00,,,0.00,Weather View 32 v70,2013-11-16 10:52:00,
2013-11-16 01:57:00,16.7,14.3,30.19,NE,45,0.0,0.0,90,0.00,,,0.00,Weather View 32 v70,2013-11-16 10:57:00,
2013-11-16 02:02:00,16.3,13.9,30.19,NE,45,0.0,1.0,90,0.00,,,0.00,Weather View 32 v70,2013-11-16 11:02:00,
2013-11-16 02:07:00,16.0,13.6,30.20,NE,45,0.0,1.0,90,0.00,,,0.00,Weather View 32 v70,2013-11-16 11:07:00,
2013-11-16 02:12:00,16.0,13.6,30.20,NE,45,0.0,1.0,90,0.00,,,0.00,Weather View 32 v70,2013-11-16 11:12:00,
2013-11-16 02:17:00,15.4,13.0,30.20,NE,45,0.0,1.0,90,0.00,,,0.00,Weather View 32 v70,2013-11-16 11:17:00,
2013-11-16 02:22:00,15.3,12.9,30.20,NE,45,0.0,1.0,90,0.00,,,0.00,Weather View 32 v70,2013-11-16 11:22:00,
2013-11-16 02:27:00,14.9,12.5,30.21,NE,45,0.0,1.0,90,0.00,,,0.00,Weather View 32 v70,2013-11-16 11:27:00,
2013-11-16 02:32:00,14.7,12.3,30.21,NE,45,0.0,1.0,90,0.00,,,0.00,Weather View 32 v70,2013-11-16 11:32:00,
2013-11-16 02:37:00,14.5,11.9,30.21,NE,45,0.0,1.0,89,0.00,,,0.00,Weather View 32 v70,2013-11-16 11:37:00,
2013-11-16 02:42:00,14.0,11.4,30.21,NE,45,0.0,1.0,89,0.00,,,0.00,Weather View 32 v70,2013-11-16 11:42:00,
2013-11-16 02:47:00,13.6,11.0,30.21,NE,45,0.0,1.0,89,0.00,,,0.00,Weather View 32 v70,2013-11-16 11:47:00,
2013-11-16 02:52:00,13.5,10.8,30.21,NE,45,0.0,1.0,89,0.00,,,0.00,Weather View 32 v70,2013-11-16 11:52:00,
2013-11-16 02:57:00,13.1,10.5,30.21,NE,45,0.0,1.0,89,0.00,,,0.00,Weather View 32 v70,2013-11-16 11:57:00,
2013-11-16 03:02:00,13.1,10.5,30.21,NE,45,0.0,1.0,89,0.00,,,0.00,Weather View 32 v70,2013-11-16 12:02:00,
2013-11-16 03:07:00,13.1,10.5,30.22,NE,45,0.0,0.0,89,0.00,,,0.00,Weather View 32 v70,2013-11-16 12:07:00,
2013-11-16 03:12:00,12.7,10.1,30.22,NE,45,0.0,0.0,89,0.00,,,0.00,Weather View 32 v70,2013-11-16 12:12:00,
2013-11-16 03:17:00,12.4,9.8,30.22,NE,45,0.0,0.0,89,0.00,,,0.00,Weather View 32 v70,2013-11-16 12:17:00,
2013-11-16 03:22:00,12.4,10.0,30.22,NE,45,0.0,0.0,90,0.00,,,0.00,Weather View 32 v70,2013-11-16 12:22:00,
2013-11-16 03:27:00,12.0,9.4,30.22,NE,45,0.0,0.0,89,0.00,,,0.00,Weather View 32 v70,2013-11-16 12:27:00,
2013-11-16 03:32:00,12.0,9.4,30.22,NE,45,0.0,0.0,89,0.00,,,0.00,Weather View 32 v70,2013-11-16 12:32:00,
2013-11-16 03:37:00,11.8,9.2,30.22,NE,45,0.0,0.0,89,0.00,,,0.00,Weather View 32 v70,2013-11-16 12:37:00,
2013-11-16 03:42:00,11.7,9.1,30.22,NE,45,0.0,0.0,89,0.00,,,0.00,Weather View 32 v70,2013-11-16 12:42:00,
2013-11-16 03:47:00,11.7,9.1,30.23,NE,45,0.0,0.0,89,0.00,,,0.00,Weather View 32 v70,2013-11-16 12:47:00,
2013-11-16 03:52:00,11.1,8.5,30.23,NE,45,0.0,0.0,89,0.00,,,0.00,Weather View 32 v70,2013-11-16 12:52:00,
2013-11-16 03:57:00,10.9,8.3,30.23,NE,45,0.0,0.0,89,0.00,,,0.00,Weather View 32 v70,2013-11-16 12:57:00,
2013-11-16 04:02:00,10.9,8.3,30.23,NE,45,0.0,0.0,89,0.00,,,0.00,Weather View 32 v70,2013-11-16 13:02:00,
2013-11-16 04:07:00,10.9,8.3,30.23,NE,45,0.0,0.0,89,0.00,,,0.00,Weather View 32 v70,2013-11-16 13:07:00,
2013-11-16 04:12:00,10.4,7.8,30.23,NE,45,0.0,0.0,89,0.00,,,0.00,Weather View 32 v70,2013-11-16 13:12:00,
2013-11-16 04:17:00,10.2,7.6,30.23,NE,45,0.0,0.0,89,0.00,,,0.00,Weather View 32 v70,2013-11-16 13:17:00,
2013-11-16 04:22:00,10.2,7.6,30.23,NE,45,0.0,0.0,89,0.00,,,0.00,Weather View 32 v70,2013-11-16 13:22:00,
2013-11-16 04:27:00,9.9,7.3,30.24,NE,45,0.0,0.0,89,0.00,,,0.00,Weather View 32 v70,2013-11-16 13:27:00,
2013-11-16 04:32:00,9.7,7.1,30.24,NE,45,0.0,0.0,89,0.00,,,0.00,Weather View 32 v70,2013-11-16 13:32:00,
2013-11-16 04:37:00,9.5,6.9,30.24,NE,45,0.0,0.0,89,0.00,,,0.00,Weather View 32 v70,2013-11-16 13:37:00,
2013-11-16 04:42:00,9.5,6.9,30.24,NE,45,0.0,0.0,89,0.00,,,0.00,Weather View 32 v70,2013-11-16 13:42:00,
2013-11-16 04:47:00,9.1,6.3,30.24,NE,45,0.0,0.0,88,0.00,,,0.00,Weather View 32 v70,2013-11-16 13:47:00,
2013-11-16 04:52:00,9.1,6.3,30.24,NE,45,0.0,0.0,88,0.00,,,0.00,Weather View 32 v70,2013-11-16 13:52:00,
2013-11-16 04:57:00,9.0,6.1,30.24,NE,45,0.0,0.0,88,0.00,,,0.00,Weather View 32 v70,2013-11-16 13:57:00,
2013-11-16 05:02:00,9.0,6.1,30.24,NE,45,0.0,0.0,88,0.00,,,0.00,Weather View 32 v70,2013-11-16 14:02:00,
2013-11-16 05:07:00,8.8,6.0,30.25,NE,45,0.0,0.0,88,0.00,,,0.00,Weather View 32 v70,2013-11-16 14:07:00,
2013-11-16 05:12:00,9.0,6.1,30.25,NE,45,0.0,0.0,88,0.00,,,0.00,Weather View 32 v70,2013-11-16 14:12:00,
2013-11-16 05:17:00,8.8,6.0,30.25,NE,45,0.0,0.0,88,0.00,,,0.00,Weather View 32 v70,2013-11-16 14:17:00,
2013-11-16 05:22:00,8.8,6.0,30.25,NE,45,0.0,0.0,88,0.00,,,0.00,Weather View 32 v70,2013-11-16 14:22:00,
2013-11-16 05:27:00,8.4,5.6,30.26,NE,45,0.0,0.0,88,0.00,,,0.00,Weather View 32 v70,2013-11-16 14:27:00,
2013-11-16 05:32:00,8.4,5.6,30.26,NE,45,0.0,0.0,88,0.00,,,0.00,Weather View 32 v70,2013-11-16 14:32:00,
2013-11-16 05:37:00,8.4,5.6,30.26,NE,45,0.0,0.0,88,0.00,,,0.00,Weather View 32 v70,2013-11-16 14:37:00,
2013-11-16 05:42:00,8.4,5.6,30.26,NE,45,0.0,0.0,88,0.00,,,0.00,Weather View 32 v70,2013-11-16 14:42:00,
2013-11-16 05:47:00,8.4,5.6,30.25,NE,45,0.0,0.0,88,0.00,,,0.00,Weather View 32 v70,2013-11-16 14:47:00,
2013-11-16 05:52:00,8.4,5.6,30.25,NE,45,0.0,0.0,88,0.00,,,0.00,Weather View 32 v70,2013-11-16 14:52:00,
2013-11-16 05:57:00,8.2,5.4,30.25,NE,45,0.0,0.0,88,0.00,,,0.00,Weather View 32 v70,2013-11-16 14:57:00,
2013-11-16 06:02:00,8.4,5.6,30.25,NE,45,0.0,0.0,88,0.00,,,0.00,Weather View 32 v70,2013-11-16 15:02:00,
2013-11-16 06:07:00,8.2,5.4,30.27,NE,45,0.0,0.0,88,0.00,,,0.00,Weather View 32 v70,2013-11-16 15:07:00,
2013-11-16 06:12:00,8.1,5.2,30.27,NE,45,0.0,0.0,88,0.00,,,0.00,Weather View 32 v70,2013-11-16 15:12:00,
2013-11-16 06:17:00,8.1,5.2,30.27,NE,45,0.0,0.0,88,0.00,,,0.00,Weather View 32 v70,2013-11-16 15:17:00,
2013-11-16 06:22:00,7.7,4.9,30.27,NE,45,0.0,0.0,88,0.00,,,0.00,Weather View 32 v70,2013-11-16 15:22:00,
2013-11-16 06:27:00,7.5,4.7,30.27,NE,45,0.0,0.0,88,0.00,,,0.00,Weather View 32 v70,2013-11-16 15:27:00,
2013-11-16 06:32:00,7.5,4.7,30.27,NE,45,0.0,0.0,88,0.00,,,0.00,Weather View 32 v70,2013-11-16 15:32:00,
2013-11-16 06:37:00,7.3,4.5,30.27,NE,45,0.0,0.0,88,0.00,,,0.00,Weather View 32 v70,2013-11-16 15:37:00,
2013-11-16 06:42:00,7.3,4.5,30.27,NE,45,0.0,0.0,88,0.00,,,0.00,Weather View 32 v70,2013-11-16 15:42:00,
2013-11-16 06:47:00,7.0,4.2,30.28,NE,45,0.0,0.0,88,0.00,,,0.00,Weather View 32 v70,2013-11-16 15:47:00,
2013-11-16 06:52:00,6.8,3.8,30.28,NE,45,0.0,0.0,87,0.00,,,0.00,Weather View 32 v70,2013-11-16 15:52:00,
2013-11-16 06:57:00,6.6,3.6,30.28,NE,45,0.0,0.0,87,0.00,,,0.00,Weather View 32 v70,2013-11-16 15:57:00,
2013-11-16 07:02:00,6.6,3.6,30.28,NE,45,0.0,0.0,87,0.00,,,0.00,Weather View 32 v70,2013-11-16 16:02:00,
2013-11-16 07:07:00,6.6,3.6,30.28,NE,45,0.0,0.0,87,0.00,,,0.00,Weather View 32 v70,2013-11-16 16:07:00,
2013-11-16 07:12:00,6.6,3.6,30.28,NE,45,0.0,0.0,87,0.00,,,0.00,Weather View 32 v70,2013-11-16 16:12:00,
2013-11-16 07:17:00,6.6,3.6,30.28,NE,45,0.0,0.0,87,0.00,,,0.00,Weather View 32 v70,2013-11-16 16:17:00,
2013-11-16 07:22:00,6.3,3.2,30.28,NE,45,0.0,0.0,87,0.00,,,0.00,Weather View 32 v70,2013-11-16 16:22:00,
2013-11-16 07:27:00,6.3,3.2,30.29,NE,45,0.0,0.0,87,0.00,,,0.00,Weather View 32 v70,2013-11-16 16:27:00,
2013-11-16 07:32:00,5.9,2.9,30.29,NE,45,0.0,0.0,87,0.00,,,0.00,Weather View 32 v70,2013-11-16 16:32:00,
2013-11-16 07:37:00,5.9,2.9,30.29,NE,45,0.0,0.0,87,0.00,,,0.00,Weather View 32 v70,2013-11-16 16:37:00,
2013-11-16 07:42:00,5.9,2.9,30.29,NE,45,0.0,0.0,87,0.00,,,0.00,Weather View 32 v70,2013-11-16 16:42:00,
2013-11-16 07:47:00,5.5,2.5,30.30,NE,45,0.0,0.0,87,0.00,,,0.00,Weather View 32 v70,2013-11-16 16:47:00,
2013-11-16 07:52:00,5.4,2.3,30.30,NE,45,0.0,0.0,87,0.00,,,0.00,Weather View 32 v70,2013-11-16 16:52:00,
2013-11-16 07:57:00,5.5,2.5,30.30,NE,45,0.0,0.0,87,0.00,,,0.00,Weather View 32 v70,2013-11-16 16:57:00,
2013-11-16 08:02:00,5.2,2.2,30.30,NE,45,0.0,0.0,87,0.00,,,0.00,Weather View 32 v70,2013-11-16 17:02:00,
2013-11-16 08:07:00,5.2,2.2,30.29,NE,45,0.0,0.0,87,0.00,,,0.00,Weather View 32 v70,2013-11-16 17:07:00,
2013-11-16 08:12:00,5.0,2.0,30.29,NE,45,0.0,0.0,87,0.00,,,0.00,Weather View 32 v70,2013-11-16 17:12:00,
2013-11-16 08:17:00,5.2,2.2,30.29,NE,45,0.0,0.0,87,0.00,,,0.00,Weather View 32 v70,2013-11-16 17:17:00,
2013-11-16 08:22:00,4.8,1.8,30.29,NE,45,0.0,0.0,87,0.00,,,0.00,Weather View 32 v70,2013-11-16 17:22:00,
2013-11-16 08:27:00,4.6,1.6,30.30,NE,45,0.0,0.0,87,0.00,,,0.00,Weather View 32 v70,2013-11-16 17:27:00,
2013-11-16 08:32:00,4.6,1.6,30.30,NE,45,0.0,0.0,87,0.00,,,0.00,Weather View 32 v70,2013-11-16 17:32:00,
2013-11-16 08:37:00,4.5,1.5,30.30,NE,45,0.0,0.0,87,0.00,,,0.00,Weather View 32 v70,2013-11-16 17:37:00,
2013-11-16 08:42:00,4.5,1.5,30.30,NE,45,0.0,0.0,87,0.00,,,0.00,Weather View 32 v70,2013-11-16 17:42:00,
2013-11-16 08:47:00,5.2,2.4,30.31,NE,45,0.0,0.0,88,0.00,,,0.00,Weather View 32 v70,2013-11-16 17:47:00,
2013-11-16 08:52:00,5.2,2.4,30.31,NE,45,0.0,0.0,88,0.00,,,0.00,Weather View 32 v70,2013-11-16 17:52:00,
2013-11-16 08:57:00,5.2,2.4,30.31,NE,45,0.0,0.0,88,0.00,,,0.00,Weather View 32 v70,2013-11-16 17:57:00,
2013-11-16 09:02:00,5.2,2.2,30.31,NE,45,0.0,0.0,87,0.00,,,0.00,Weather View 32 v70,2013-11-16 18:02:00,
2013-11-16 09:07:00,4.6,1.6,30.33,NE,45,0.0,0.0,87,0.00,,,0.00,Weather View 32 v70,2013-11-16 18:07:00,
2013-11-16 09:12:00,4.5,1.5,30.33,NE,45,0.0,0.0,87,0.00,,,0.00,Weather View 32 v70,2013-11-16 18:12:00,
2013-11-16 09:17:00,4.5,1.5,30.33,NE,45,0.0,0.0,87,0.00,,,0.00,Weather View 32 v70,2013-11-16 18:17:00,
2013-11-16 09:22:00,4.5,1.5,30.33,NE,45,0.0,0.0,87,0.00,,,0.00,Weather View 32 v70,2013-11-16 18:22:00,
2013-11-16 09:27:00,4.5,1.5,30.35,NE,45,0.0,0.0,87,0.00,,,0.00,Weather View 32 v70,2013-11-16 18:27:00,
2013-11-16 09:32:00,4.5,1.5,30.35,NE,45,0.0,0.0,87,0.00,,,0.00,Weather View 32 v70,2013-11-16 18:32:00,
2013-11-16 09:37:00,4.8,1.8,30.35,NE,45,0.0,0.0,87,0.00,,,0.00,Weather View 32 v70,2013-11-16 18:37:00,
2013-11-16 09:42:00,4.6,1.6,30.35,NE,45,0.0,0.0,87,0.00,,,0.00,Weather View 32 v70,2013-11-16 18:42:00,
2013-11-16 09:47:00,5.2,2.4,30.36,NE,45,0.0,0.0,88,0.00,,,0.00,Weather View 32 v70,2013-11-16 18:47:00,
2013-11-16 09:52:00,5.2,2.4,30.36,NE,45,0.0,0.0,88,0.00,,,0.00,Weather View 32 v70,2013-11-16 18:52:00,
2013-11-16 09:57:00,4.8,1.8,30.36,NE,45,0.0,0.0,87,0.00,,,0.00,Weather View 32 v70,2013-11-16 18:57:00,
2013-11-16 10:02:00,4.6,1.6,30.36,NE,45,0.0,0.0,87,0.00,,,0.00,Weather View 32 v70,2013-11-16 19:02:00,
2013-11-16 10:07:00,4.6,1.6,30.37,NE,45,0.0,0.0,87,0.00,,,0.00,Weather View 32 v70,2013-11-16 19:07:00,
2013-11-16 10:12:00,4.8,1.8,30.37,NE,45,0.0,0.0,87,0.00,,,0.00,Weather View 32 v70,2013-11-16 19:12:00,
2013-11-16 10:17:00,4.8,1.8,30.37,NE,45,0.0,0.0,87,0.00,,,0.00,Weather View 32 v70,2013-11-16 19:17:00,
2013-11-16 10:22:00,5.2,2.2,30.37,NE,45,0.0,0.0,87,0.00,,,0.00,Weather View 32 v70,2013-11-16 19:22:00,
2013-11-16 10:27:00,5.2,2.4,30.36,NE,45,0.0,0.0,88,0.00,,,0.00,Weather View 32 v70,2013-11-16 19:27:00,
2013-11-16 10:32:00,5.4,2.6,30.36,NE,45,0.0,0.0,88,0.00,,,0.00,Weather View 32 v70,2013-11-16 19:32:00,
2013-11-16 10:37:00,5.9,3.1,30.36,NE,45,0.0,0.0,88,0.00,,,0.00,Weather View 32 v70,2013-11-16 19:37:00,
2013-11-16 10:42:00,5.9,3.1,30.36,NE,45,0.0,0.0,88,0.00,,,0.00,Weather View 32 v70,2013-11-16 19:42:00,
2013-11-16 10:47:00,6.3,3.5,30.37,NE,45,0.0,0.0,88,0.00,,,0.00,Weather View 32 v70,2013-11-16 19:47:00,
2013-11-16 10:52:00,6.6,3.8,30.37,NE,45,0.0,0.0,88,0.00,,,0.00,Weather View 32 v70,2013-11-16 19:52:00,
2013-11-16 10:57:00,7.0,4.4,30.37,NE,45,0.0,0.0,89,0.00,,,0.00,Weather View 32 v70,2013-11-16 19:57:00,
2013-11-16 11:02:00,8.1,5.7,30.37,NE,45,0.0,0.0,90,0.00,,,0.00,Weather View 32 v70,2013-11-16 20:02:00,
2013-11-16 11:07:00,8.8,6.5,30.37,NE,45,1.0,1.0,90,0.00,,,0.00,Weather View 32 v70,2013-11-16 20:07:00,
2013-11-16 11:12:00,9.5,7.2,30.37,NE,45,1.0,1.0,90,0.00,,,0.00,Weather View 32 v70,2013-11-16 20:12:00,
2013-11-16 11:17:00,9.7,7.3,30.37,NE,45,1.0,1.0,90,0.00,,,0.00,Weather View 32 v70,2013-11-16 20:17:00,
2013-11-16 11:22:00,12.0,9.7,30.37,NE,45,1.0,1.0,90,0.00,,,0.00,Weather View 32 v70,2013-11-16 20:22:00,
2013-11-16 11:27:00,13.6,11.0,30.37,NE,45,0.0,1.0,89,0.00,,,0.00,Weather View 32 v70,2013-11-16 20:27:00,
2013-11-16 11:32:00,18.1,14.9,30.37,NE,45,0.0,1.0,87,0.00,,,0.00,Weather View 32 v70,2013-11-16 20:32:00,
2013-11-16 11:37:00,23.9,19.5,30.37,NE,45,0.0,1.0,83,0.00,,,0.00,Weather View 32 v70,2013-11-16 20:37:00,
2013-11-16 11:42:00,26.1,21.3,30.37,NE,45,0.0,1.0,82,0.00,,,0.00,Weather View 32 v70,2013-11-16 20:42:00,
2013-11-16 11:47:00,29.7,23.3,30.35,NE,45,1.0,1.0,77,0.00,,,0.00,Weather View 32 v70,2013-11-16 20:47:00,
2013-11-16 11:52:00,28.9,22.0,30.35,NE,45,1.0,1.0,75,0.00,,,0.00,Weather View 32 v70,2013-11-16 20:52:00,
2013-11-16 11:57:00,29.1,21.2,30.35,NE,45,0.0,1.0,72,0.00,,,0.00,Weather View 32 v70,2013-11-16 20:57:00,
2013-11-16 12:02:00,25.7,17.6,30.35,NE,45,0.0,1.0,71,0.00,,,0.00,Weather View 32 v70,2013-11-16 21:02:00,
2013-11-16 12:07:00,22.5,15.7,30.34,NE,45,0.0,1.0,75,0.00,,,0.00,Weather View 32 v70,2013-11-16 21:07:00,
2013-11-16 12:12:00,23.4,17.8,30.34,NE,45,0.0,1.0,79,0.00,,,0.00,Weather View 32 v70,2013-11-16 21:12:00,
2013-11-16 12:17:00,25.0,18.8,30.34,NE,45,0.0,1.0,77,0.00,,,0.00,Weather View 32 v70,2013-11-16 21:17:00,
2013-11-16 12:22:00,25.5,18.7,30.34,NE,45,0.0,1.0,75,0.00,,,0.00,Weather View 32 v70,2013-11-16 21:22:00,
2013-11-16 12:27:00,28.9,21.7,30.34,NE,45,0.0,1.0,74,0.00,,,0.00,Weather View 32 v70,2013-11-16 21:27:00,
2013-11-16 12:32:00,32.2,23.8,30.34,NE,45,1.0,1.0,71,0.00,,,0.00,Weather View 32 v70,2013-11-16 21:32:00,
2013-11-16 12:37:00,27.7,20.5,30.34,NE,45,1.0,1.0,74,0.00,,,0.00,Weather View 32 v70,2013-11-16 21:37:00,
2013-11-16 12:42:00,25.0,19.1,30.34,NE,45,1.0,1.0,78,0.00,,,0.00,Weather View 32 v70,2013-11-16 21:42:00,
2013-11-16 12:47:00,23.9,18.6,30.35,NE,45,2.0,2.0,80,0.00,,,0.00,Weather View 32 v70,2013-11-16 21:47:00,
2013-11-16 12:52:00,23.2,18.5,30.35,NE,45,2.0,2.0,82,0.00,,,0.00,Weather View 32 v70,2013-11-16 21:52:00,
2013-11-16 12:57:00,23.2,18.8,30.35,NE,45,1.0,2.0,83,0.00,,,0.00,Weather View 32 v70,2013-11-16 21:57:00,
2013-11-16 13:02:00,22.5,18.1,30.35,NE,45,1.0,2.0,83,0.00,,,0.00,Weather View 32 v70,2013-11-16 22:02:00,
2013-11-16 13:07:00,21.9,17.8,30.36,NE,45,1.0,2.0,84,0.00,,,0.00,Weather View 32 v70,2013-11-16 22:07:00,
2013-11-16 13:12:00,21.7,17.7,30.36,NE,45,0.0,2.0,84,0.00,,,0.00,Weather View 32 v70,2013-11-16 22:12:00,
2013-11-16 13:17:00,21.7,17.7,30.36,NE,45,1.0,2.0,84,0.00,,,0.00,Weather View 32 v70,2013-11-16 22:17:00,
2013-11-16 13:22:00,21.4,17.3,30.36,NE,45,1.0,2.0,84,0.00,,,0.00,Weather View 32 v70,2013-11-16 22:22:00,
2013-11-16 13:27:00,21.0,17.2,30.36,NE,45,0.0,2.0,85,0.00,,,0.00,Weather View 32 v70,2013-11-16 22:27:00,
2013-11-16 13:32:00,21.0,17.5,30.36,NE,45,0.0,2.0,86,0.00,,,0.00,Weather View 32 v70,2013-11-16 22:32:00,
2013-11-16 13:37:00,20.7,17.4,30.36,NE,45,0.0,2.0,87,0.00,,,0.00,Weather View 32 v70,2013-11-16 22:37:00,
2013-11-16 13:42:00,20.7,17.4,30.36,NE,45,0.0,2.0,87,0.00,,,0.00,Weather View 32 v70,2013-11-16 22:42:00,
2013-11-16 13:47:00,20.7,17.4,30.38,NE,45,0.0,2.0,87,0.00,,,0.00,Weather View 32 v70,2013-11-16 22:47:00,
2013-11-16 13:52:00,20.7,17.7,30.38,NE,45,0.0,2.0,88,0.00,,,0.00,Weather View 32 v70,2013-11-16 22:52:00,
2013-11-16 13:57:00,21.0,18.0,30.38,NE,45,1.0,1.0,88,0.00,,,0.00,Weather View 32 v70,2013-11-16 22:57:00,
2013-11-16 14:03:00,21.2,18.2,30.38,NE,45,1.0,1.0,88,0.00,,,0.00,Weather View 32 v70,2013-11-16 23:03:00,
2013-11-16 14:08:00,21.0,18.0,30.37,NE,45,1.0,1.0,88,0.00,,,0.00,Weather View 32 v70,2013-11-16 23:08:00,
2013-11-16 14:13:00,21.0,18.0,30.37,NE,45,1.0,1.0,88,0.00,,,0.00,Weather View 32 v70,2013-11-16 23:13:00,
2013-11-16 14:18:00,20.8,17.8,30.37,NE,45,0.0,1.0,88,0.00,,,0.00,Weather View 32 v70,2013-11-16 23:18:00,
2013-11-16 14:23:00,20.8,17.8,30.37,NE,45,0.0,1.0,88,0.00,,,0.00,Weather View 32 v70,2013-11-16 23:23:00,
2013-11-16 14:28:00,20.7,17.7,30.39,NE,45,0.0,1.0,88,0.00,,,0.00,Weather View 32 v70,2013-11-16 23:28:00,
2013-11-16 14:33:00,20.5,17.5,30.39,NE,45,0.0,1.0,88,0.00,,,0.00,Weather View 32 v70,2013-11-16 23:33:00,
2013-11-16 14:38:00,20.3,17.3,30.39,NE,45,0.0,1.0,88,0.00,,,0.00,Weather View 32 v70,2013-11-16 23:38:00,
2013-11-16 14:43:00,20.3,17.6,30.39,NE,45,0.0,1.0,89,0.00,,,0.00,Weather View 32 v70,2013-11-16 23:43:00,
2013-11-16 14:48:00,20.1,17.4,30.39,NE,45,0.0,1.0,89,0.00,,,0.00,Weather View 32 v70,2013-11-16 23:48:00,
2013-11-16 14:53:00,20.3,17.6,30.39,NE,45,0.0,1.0,89,0.00,,,0.00,Weather View 32 v70,2013-11-16 23:53:00,
2013-11-16 14:58:00,19.9,17.2,30.39,NE,45,0.0,1.0,89,0.00,,,0.00,Weather View 32 v70,2013-11-16 23:58:00,
2013-11-16 15:03:00,19.9,17.2,30.39,NE,45,0.0,1.0,89,0.00,,,0.00,Weather View 32 v70,2013-11-17 00:03:00,
2013-11-16 15:08:00,19.6,16.9,30.39,NE,45,0.0,1.0,89,0.00,,,0.00,Weather View 32 v70,2013-11-17 00:08:00,
2013-11-16 15:13:00,19.2,16.5,30.39,NE,45,0.0,1.0,89,0.00,,,0.00,Weather View 32 v70,2013-11-17 00:13:00,
2013-11-16 15:18:00,19.2,16.5,30.39,NE,45,0.0,0.0,89,0.00,,,0.00,Weather View 32 v70,2013-11-17 00:18:00,
2013-11-16 15:23:00,19.0,16.3,30.39,NE,45,0.0,0.0,89,0.00,,,0.00,Weather View 32 v70,2013-11-17 00:23:00,
2013-11-16 15:28:00,19.0,16.3,30.39,NE,45,0.0,0.0,89,0.00,,,0.00,Weather View 32 v70,2013-11-17 00:28:00,
2013-11-16 15:33:00,19.6,16.9,30.39,NE,45,0.0,0.0,89,0.00,,,0.00,Weather View 32 v70,2013-11-17 00:33:00,
2013-11-16 15:38:00,19.6,17.1,30.39,NE,45,0.0,0.0,90,0.00,,,0.00,Weather View 32 v70,2013-11-17 00:38:00,
2013-11-16 15:43:00,19.8,17.3,30.39,NE,45,0.0,0.0,90,0.00,,,0.00,Weather View 32 v70,2013-11-17 00:43:00,
2013-11-16 15:48:00,19.9,17.5,30.38,NE,45,1.0,1.0,90,0.00,,,0.00,Weather View 32 v70,2013-11-17 00:48:00,
2013-11-16 15:53:00,20.1,17.7,30.38,NE,45,1.0,1.0,90,0.00,,,0.00,Weather View 32 v70,2013-11-17 00:53:00,
2013-11-16 15:58:00,20.3,17.8,30.38,NE,45,2.0,2.0,90,0.00,,,0.00,Weather View 32 v70,2013-11-17 00:58:00,
2013-11-16 16:03:00,20.3,17.8,30.38,NE,45,1.0,2.0,90,0.00,,,0.00,Weather View 32 v70,2013-11-17 01:03:00,
2013-11-16 16:08:00,20.7,17.9,30.38,NE,45,1.0,2.0,89,0.00,,,0.00,Weather View 32 v70,2013-11-17 01:08:00,
2013-11-16 16:13:00,20.7,17.9,30.38,NE,45,1.0,2.0,89,0.00,,,0.00,Weather View 32 v70,2013-11-17 01:13:00,
2013-11-16 16:18:00,20.7,17.9,30.38,NE,45,1.0,2.0,89,0.00,,,0.00,Weather View 32 v70,2013-11-17 01:18:00,
2013-11-16 16:23:00,20.5,17.8,30.38,NE,45,1.0,2.0,89,0.00,,,0.00,Weather View 32 v70,2013-11-17 01:23:00,
2013-11-16 16:28:00,20.7,17.9,30.38,NE,45,1.0,2.0,89,0.00,,,0.00,Weather View 32 v70,2013-11-17 01:28:00,
2013-11-16 16:33:00,20.7,17.9,30.38,NE,45,1.0,2.0,89,0.00,,,0.00,Weather View 32 v70,2013-11-17 01:33:00,
2013-11-16 16:38:00,21.0,18.0,30.38,NE,45,1.0,2.0,88,0.00,,,0.00,Weather View 32 v70,2013-11-17 01:38:00,
2013-11-16 16:43:00,21.0,18.3,30.38,NE,45,1.0,2.0,89,0.00,,,0.00,Weather View 32 v70,2013-11-17 01:43:00,
2013-11-16 16:48:00,21.0,18.3,30.37,NE,45,1.0,2.0,89,0.00,,,0.00,Weather View 32 v70,2013-11-17 01:48:00,
2013-11-16 16:53:00,20.8,18.1,30.37,NE,45,1.0,2.0,89,0.00,,,0.00,Weather View 32 v70,2013-11-17 01:53:00,
2013-11-16 16:58:00,21.0,18.3,30.37,NE,45,2.0,2.0,89,0.00,,,0.00,Weather View 32 v70,2013-11-17 01:58:00,
2013-11-16 17:03:00,20.7,17.7,30.37,NE,45,1.0,2.0,88,0.00,,,0.00,Weather View 32 v70,2013-11-17 02:03:00,
2013-11-16 17:08:00,20.3,17.3,30.35,NE,45,1.0,2.0,88,0.00,,,0.00,Weather View 32 v70,2013-11-17 02:08:00,
2013-11-16 17:13:00,19.9,17.0,30.35,NE,45,1.0,2.0,88,0.00,,,0.00,Weather View 32 v70,2013-11-17 02:13:00,
2013-11-16 17:18:00,19.4,16.4,30.35,NE,45,1.0,2.0,88,0.00,,,0.00,Weather View 32 v70,2013-11-17 02:18:00,
2013-11-16 17:23:00,18.9,15.9,30.35,NE,45,1.0,2.0,88,0.00,,,0.00,Weather View 32 v70,2013-11-17 02:23:00,
2013-11-16 17:28:00,18.5,15.8,30.36,NE,45,1.0,2.0,89,0.00,,,0.00,Weather View 32 v70,2013-11-17 02:28:00,
2013-11-16 17:33:00,18.3,15.6,30.36,NE,45,1.0,2.0,89,0.00,,,0.00,Weather View 32 v70,2013-11-17 02:33:00,
2013-11-16 17:38:00,18.1,15.4,30.36,NE,45,1.0,2.0,89,0.00,,,0.00,Weather View 32 v70,2013-11-17 02:38:00,
2013-11-16 17:43:00,17.6,14.7,30.36,NE,45,0.0,2.0,88,0.00,,,0.00,Weather View 32 v70,2013-11-17 02:43:00,
2013-11-16 17:48:00,17.4,14.5,30.36,NE,45,0.0,2.0,88,0.00,,,0.00,Weather View 32 v70,2013-11-17 02:48:00,
2013-11-16 17:53:00,16.7,13.8,30.36,NE,45,0.0,2.0,88,0.00,,,0.00,Weather View 32 v70,2013-11-17 02:53:00,
2013-11-16 17:58:00,16.3,13.4,30.36,NE,45,0.0,2.0,88,0.00,,,0.00,Weather View 32 v70,2013-11-17 02:58:00,
2013-11-16 18:03:00,16.0,13.3,30.36,NE,45,0.0,1.0,89,0.00,,,0.00,Weather View 32 v70,2013-11-17 03:03:00,
2013-11-16 18:08:00,16.0,13.3,30.36,NE,45,0.0,1.0,89,0.00,,,0.00,Weather View 32 v70,2013-11-17 03:08:00,
2013-11-16 18:13:00,15.4,12.5,30.36,NE,45,0.0,1.0,88,0.00,,,0.00,Weather View 32 v70,2013-11-17 03:13:00,
2013-11-16 18:18:00,14.9,12.0,30.36,NE,45,1.0,1.0,88,0.00,,,0.00,Weather View 32 v70,2013-11-17 03:18:00,
2013-11-16 18:23:00,14.9,12.0,30.36,NE,45,1.0,1.0,88,0.00,,,0.00,Weather View 32 v70,2013-11-17 03:23:00,
2013-11-16 18:28:00,14.5,11.6,30.36,NE,45,1.0,1.0,88,0.00,,,0.00,Weather View 32 v70,2013-11-17 03:28:00,
2013-11-16 18:33:00,14.2,11.3,30.36,NE,45,0.0,1.0,88,0.00,,,0.00,Weather View 32 v70,2013-11-17 03:33:00,
2013-11-16 18:38:00,13.8,10.9,30.36,NE,45,0.0,1.0,88,0.00,,,0.00,Weather View 32 v70,2013-11-17 03:38:00,
2013-11-16 18:43:00,13.6,11.0,30.36,NE,45,0.0,1.0,89,0.00,,,0.00,Weather View 32 v70,2013-11-17 03:43:00,
2013-11-16 18:48:00,13.5,10.6,30.36,NE,45,0.0,1.0,88,0.00,,,0.00,Weather View 32 v70,2013-11-17 03:48:00,
2013-11-16 18:53:00,13.5,10.6,30.36,NE,45,0.0,1.0,88,0.00,,,0.00,Weather View 32 v70,2013-11-17 03:53:00,
2013-11-16 18:58:00,12.7,9.9,30.36,NE,45,0.0,1.0,88,0.00,,,0.00,Weather View 32 v70,2013-11-17 03:58:00,
2013-11-16 19:03:00,12.4,9.5,30.36,NE,45,1.0,1.0,88,0.00,,,0.00,Weather View 32 v70,2013-11-17 04:03:00,
2013-11-16 19:08:00,11.7,8.5,30.36,NE,45,2.0,2.0,87,0.00,,,0.00,Weather View 32 v70,2013-11-17 04:08:00,
2013-11-16 19:13:00,11.7,8.5,30.36,NE,45,2.0,2.0,87,0.00,,,0.00,Weather View 32 v70,2013-11-17 04:13:00,
2013-11-16 19:18:00,11.3,8.4,30.36,NE,45,1.0,2.0,88,0.00,,,0.00,Weather View 32 v70,2013-11-17 04:18:00,
2013-11-16 19:23:00,11.3,8.4,30.36,NE,45,1.0,2.0,88,0.00,,,0.00,Weather View 32 v70,2013-11-17 04:23:00,
2013-11-16 19:28:00,11.1,8.3,30.37,NE,45,0.0,2.0,88,0.00,,,0.00,Weather View 32 v70,2013-11-17 04:28:00,
2013-11-16 19:33:00,11.3,8.4,30.37,NE,45,1.0,2.0,88,0.00,,,0.00,Weather View 32 v70,2013-11-17 04:33:00,
2013-11-16 19:38:00,13.1,10.7,30.37,NE,45,2.0,2.0,90,0.00,,,0.00,Weather View 32 v70,2013-11-17 04:38:00,
2013-11-16 19:43:00,15.6,13.0,30.37,NE,45,4.0,4.0,89,0.00,,,0.00,Weather View 32 v70,2013-11-17 04:43:00,
2013-11-16 19:48:00,16.0,13.1,30.37,NE,45,4.0,4.0,88,0.00,,,0.00,Weather View 32 v70,2013-11-17 04:48:00,
2013-11-16 19:53:00,16.3,13.4,30.37,NE,45,3.0,4.0,88,0.00,,,0.00,Weather View 32 v70,2013-11-17 04:53:00,
2013-11-16 19:58:00,15.4,12.3,30.37,NE,45,3.0,4.0,87,0.00,,,0.00,Weather View 32 v70,2013-11-17 04:58:00,
2013-11-16 20:01:00,14.5,11.1,30.37,NE,45,2.0,4.0,86,0.00,,,0.00,Weather View 32 v70,2013-11-17 05:01:00,
2013-11-16 20:02:00,14.5,11.1,30.37,NE,45,2.0,4.0,86,0.00,,,0.00,Weather View 32 v70,2013-11-17 05:02:00,
2013-11-16 20:07:00,14.4,11.2,30.37,NE,45,3.0,4.0,87,0.00,,,0.00,Weather View 32 v70,2013-11-17 05:07:00,
2013-11-16 20:12:00,14.5,11.4,30.37,NE,45,3.0,4.0,87,0.00,,,0.00,Weather View 32 v70,2013-11-17 05:12:00,
2013-11-16 20:17:00,14.5,11.4,30.37,NE,45,3.0,4.0,87,0.00,,,0.00,Weather View 32 v70,2013-11-17 05:17:00,
2013-11-16 20:22:00,13.8,10.7,30.37,NE,45,2.0,4.0,87,0.00,,,0.00,Weather View 32 v70,2013-11-17 05:22:00,
2013-11-16 20:27:00,13.3,10.1,30.38,NE,45,2.0,4.0,87,0.00,,,0.00,Weather View 32 v70,2013-11-17 05:27:00,
2013-11-16 20:32:00,13.8,10.7,30.38,NE,45,2.0,4.0,87,0.00,,,0.00,Weather View 32 v70,2013-11-17 05:32:00,
2013-11-16 20:37:00,14.0,11.1,30.38,NE,45,2.0,4.0,88,0.00,,,0.00,Weather View 32 v70,2013-11-17 05:37:00,
2013-11-16 20:42:00,14.0,11.1,30.38,NE,45,2.0,4.0,88,0.00,,,0.00,Weather View 32 v70,2013-11-17 05:42:00,
2013-11-16 20:47:00,13.6,10.8,30.38,NE,45,1.0,4.0,88,0.00,,,0.00,Weather View 32 v70,2013-11-17 05:47:00,
2013-11-16 20:52:00,13.8,11.2,30.38,NE,45,1.0,4.0,89,0.00,,,0.00,Weather View 32 v70,2013-11-17 05:52:00,
2013-11-16 20:57:00,13.8,11.2,30.38,NE,45,2.0,3.0,89,0.00,,,0.00,Weather View 32 v70,2013-11-17 05:57:00,
2013-11-16 21:02:00,14.2,11.5,30.38,NE,45,3.0,3.0,89,0.00,,,0.00,Weather View 32 v70,2013-11-17 06:02:00,
2013-11-16 21:07:00,14.5,11.9,30.38,NE,45,3.0,3.0,89,0.00,,,0.00,Weather View 32 v70,2013-11-17 06:07:00,
2013-11-16 21:12:00,15.3,12.6,30.38,NE,45,3.0,3.0,89,0.00,,,0.00,Weather View 32 v70,2013-11-17 06:12:00,
2013-11-16 21:17:00,16.0,13.1,30.38,NE,45,4.0,4.0,88,0.00,,,0.00,Weather View 32 v70,2013-11-17 06:17:00,
2013-11-16 21:22:00,16.9,13.4,30.38,NE,45,4.0,4.0,86,0.00,,,0.00,Weather View 32 v70,2013-11-17 06:22:00,
2013-11-16 21:27:00,17.6,13.6,30.37,NE,45,5.0,5.0,84,0.00,,,0.00,Weather View 32 v70,2013-11-17 06:27:00,
2013-11-16 21:32:00,18.1,13.9,30.37,NE,45,6.0,6.0,83,0.00,,,0.00,Weather View 32 v70,2013-11-17 06:32:00,
2013-11-16 21:37:00,18.1,13.6,30.37,NE,45,6.0,6.0,82,0.00,,,0.00,Weather View 32 v70,2013-11-17 06:37:00,
2013-11-16 21:42:00,18.5,13.9,30.37,NE,45,6.0,6.0,82,0.00,,,0.00,Weather View 32 v70,2013-11-17 06:42:00,
2013-11-16 21:47:00,18.9,13.7,30.38,NE,45,6.0,6.0,80,0.00,,,0.00,Weather View 32 v70,2013-11-17 06:47:00,
2013-11-16 21:52:00,18.9,13.4,30.38,NE,45,6.0,6.0,79,0.00,,,0.00,Weather View 32 v70,2013-11-17 06:52:00,
2013-11-16 21:57:00,18.9,13.1,30.38,NE,45,6.0,6.0,78,0.00,,,0.00,Weather View 32 v70,2013-11-17 06:57:00,
2013-11-16 22:02:00,18.9,13.1,30.38,NE,45,6.0,6.0,78,0.00,,,0.00,Weather View 32 v70,2013-11-17 07:02:00,
2013-11-16 22:07:00,18.9,13.1,30.39,NE,45,5.0,6.0,78,0.00,,,0.00,Weather View 32 v70,2013-11-17 07:07:00,
2013-11-16 22:12:00,18.9,13.1,30.39,NE,45,5.0,6.0,78,0.00,,,0.00,Weather View 32 v70,2013-11-17 07:12:00,
2013-11-16 22:17:00,19.2,13.2,30.39,NE,45,5.0,6.0,77,0.00,,,0.00,Weather View 32 v70,2013-11-17 07:17:00,
2013-11-16 22:22:00,19.2,13.2,30.39,NE,45,5.0,6.0,77,0.00,,,0.00,Weather View 32 v70,2013-11-17 07:22:00,
2013-11-16 22:27:00,19.6,12.9,30.38,NE,45,6.0,6.0,75,0.00,,,0.00,Weather View 32 v70,2013-11-17 07:27:00,
2013-11-16 22:32:00,19.8,13.1,30.38,NE,45,6.0,6.0,75,0.00,,,0.00,Weather View 32 v70,2013-11-17 07:32:00,
2013-11-16 22:37:00,19.2,12.9,30.38,NE,45,5.0,6.0,76,0.00,,,0.00,Weather View 32 v70,2013-11-17 07:37:00,
2013-11-16 22:42:00,19.2,12.9,30.38,NE,45,4.0,6.0,76,0.00,,,0.00,Weather View 32 v70,2013-11-17 07:42:00,
2013-11-16 22:47:00,19.4,12.8,30.38,NE,45,4.0,6.0,75,0.00,,,0.00,Weather View 32 v70,2013-11-17 07:47:00,
2013-11-16 22:52:00,19.6,12.6,30.38,NE,45,5.0,6.0,74,0.00,,,0.00,Weather View 32 v70,2013-11-17 07:52:00,
2013-11-16 22:57:00,19.6,12.3,30.38,NE,45,5.0,6.0,73,0.00,,,0.00,Weather View 32 v70,2013-11-17 07:57:00,
2013-11-16 23:02:00,19.6,12.6,30.38,NE,45,5.0,6.0,74,0.00,,,0.00,Weather View 32 v70,2013-11-17 08:02:00,
2013-11-16 23:07:00,19.8,12.5,30.39,NE,45,4.0,6.0,73,0.00,,,0.00,Weather View 32 v70,2013-11-17 08:07:00,
2013-11-16 23:12:00,19.6,12.3,30.39,NE,45,4.0,6.0,73,0.00,,,0.00,Weather View 32 v70,2013-11-17 08:12:00,
2013-11-16 23:17:00,19.6,12.3,30.39,NE,45,4.0,6.0,73,0.00,,,0.00,Weather View 32 v70,2013-11-17 08:17:00,
2013-11-16 23:22:00,19.6,12.3,30.39,NE,45,4.0,6.0,73,0.00,,,0.00,Weather View 32 v70,2013-11-17 08:22:00,
2013-11-16 23:27:00,19.6,12.3,30.39,NE,45,4.0,6.0,73,0.00,,,0.00,Weather View 32 v70,2013-11-17 08:27:00,
2013-11-16 23:32:00,19.8,12.2,30.39,NE,45,4.0,6.0,72,0.00,,,0.00,Weather View 32 v70,2013-11-17 08:32:00,
2013-11-16 23:37:00,19.9,12.7,30.39,NE,45,4.0,5.0,73,0.00,,,0.00,Weather View 32 v70,2013-11-17 08:37:00,
2013-11-16 23:42:00,19.8,12.2,30.39,NE,45,5.0,5.0,72,0.00,,,0.00,Weather View 32 v70,2013-11-17 08:42:00,
2013-11-16 23:47:00,19.6,12.3,30.39,NE,45,4.0,5.0,73,0.00,,,0.00,Weather View 32 v70,2013-11-17 08:47:00,
2013-11-16 23:52:00,19.6,12.3,30.39,NE,45,4.0,5.0,73,0.00,,,0.00,Weather View 32 v70,2013-11-17 08:52:00,
2013-11-16 23:57:00,19.6,12.0,30.39,NE,45,4.0,5.0,72,0.00,,,0.00,Weather View 32 v70,2013-11-17 08:57:00,